createdAt,value
2023-05-19T00:01:19.246Z,3.97
2023-05-19T00:03:52.731Z,5.30
2023-05-19T00:06:27.748Z,4.38
2023-05-19T00:09:03.872Z,3.55
2023-05-19T00:11:30.953Z,3.80
2023-05-19T00:14:00.218Z,3.88
2023-05-19T00:16:28.771Z,3.65
2023-05-19T00:18:57.206Z,3.53
2023-05-19T00:21:24.345Z,3.70
2023-05-19T00:23:51.172Z,3.90
2023-05-19T00:26:18.788Z,3.58
2023-05-19T00:28:45.567Z,3.10
2023-05-19T00:31:12.328Z,3.80
2023-05-19T00:33:39.192Z,3.80
2023-05-19T00:36:06.437Z,3.42
2023-05-19T00:38:34.850Z,3.17
2023-05-19T00:41:03.123Z,3.38
2023-05-19T00:43:30.437Z,2.88
2023-05-19T00:45:57.694Z,2.53
2023-05-19T00:48:26.158Z,2.78
2023-05-19T00:51:04.508Z,1.70
2023-05-19T00:53:35.488Z,2.35
2023-05-19T00:56:03.444Z,2.28
2023-05-19T00:58:31.382Z,2.65
2023-05-19T01:01:07.803Z,2.40
2023-05-19T01:03:36.182Z,2.40
2023-05-19T01:06:07.230Z,2.22
2023-05-19T01:08:35.820Z,2.17
2023-05-19T01:11:03.918Z,2.40
2023-05-19T01:13:31.575Z,2.35
2023-05-19T01:15:58.387Z,2.38
2023-05-19T01:18:44.488Z,2.15
2023-05-19T01:21:37.283Z,2.08
2023-05-19T01:24:56.089Z,2.50
2023-05-19T01:27:50.878Z,2.25
2023-05-19T01:30:29.246Z,2.05
2023-05-19T01:33:02.498Z,2.38
2023-05-19T01:35:30.921Z,2.22
2023-05-19T01:37:59.338Z,2.30
2023-05-19T01:40:27.629Z,2.10
2023-05-19T01:42:57.846Z,2.00
2023-05-19T01:45:26.343Z,2.15
2023-05-19T01:47:56.123Z,2.38
2023-05-19T01:50:23.529Z,2.30
2023-05-19T01:52:51.261Z,2.50
2023-05-19T01:55:18.232Z,2.08
2023-05-19T01:58:10.715Z,2.17
2023-05-19T02:01:09.108Z,2.00
2023-05-19T02:03:44.648Z,2.00
2023-05-19T02:06:20.114Z,1.92
2023-05-19T02:09:16.815Z,2.15
2023-05-19T02:11:47.315Z,2.10
2023-05-19T02:14:20.581Z,2.30
2023-05-19T02:16:48.813Z,2.47
2023-05-19T02:19:24.321Z,2.58
2023-05-19T02:21:51.323Z,2.67
2023-05-19T02:24:18.708Z,2.97
2023-05-19T02:26:45.765Z,2.65
2023-05-19T02:29:12.570Z,2.88
2023-05-19T02:31:39.345Z,2.78
2023-05-19T02:34:06.227Z,3.55
2023-05-19T02:36:35.218Z,3.20
2023-05-19T02:39:02.431Z,2.95
2023-05-19T02:41:29.589Z,3.00
2023-05-19T02:43:56.455Z,3.08
2023-05-19T02:46:23.324Z,2.58
2023-05-19T02:48:51.336Z,2.72
2023-05-19T02:51:18.106Z,2.53
2023-05-19T02:53:44.907Z,2.63
2023-05-19T02:56:11.773Z,3.30
2023-05-19T02:58:39.517Z,3.38
2023-05-19T03:01:06.302Z,2.65
2023-05-19T03:03:33.174Z,2.88
2023-05-19T03:05:59.996Z,3.05
2023-05-19T03:08:26.789Z,3.45
2023-05-19T03:10:53.630Z,2.90
2023-05-19T03:13:20.468Z,2.85
2023-05-19T03:15:47.607Z,3.15
2023-05-19T03:18:14.401Z,2.92
2023-05-19T03:20:42.469Z,2.80
2023-05-19T03:23:09.583Z,3.00
2023-05-19T03:25:36.743Z,3.10
2023-05-19T03:28:03.526Z,2.90
2023-05-19T03:30:30.762Z,3.15
2023-05-19T03:32:57.772Z,2.75
2023-05-19T03:35:24.580Z,3.42
2023-05-19T03:37:51.409Z,2.45
2023-05-19T03:40:19.036Z,3.15
2023-05-19T03:42:46.544Z,3.13
2023-05-19T03:45:13.326Z,2.83
2023-05-19T03:47:40.203Z,2.95
2023-05-19T03:50:07.450Z,3.22
2023-05-19T03:52:34.203Z,3.22
2023-05-19T03:55:01.085Z,3.15
2023-05-19T03:57:29.577Z,3.15
2023-05-19T03:59:56.346Z,3.55
2023-05-19T04:02:23.163Z,3.58
2023-05-19T04:04:51.226Z,3.13
2023-05-19T04:07:18.185Z,3.72
2023-05-19T04:09:45.622Z,3.35
2023-05-19T04:12:12.390Z,3.60
2023-05-19T04:14:39.166Z,3.65
2023-05-19T04:17:05.958Z,3.63
2023-05-19T04:19:32.767Z,4.20
2023-05-19T04:21:59.584Z,4.20
2023-05-19T04:24:26.357Z,4.18
2023-05-19T04:26:53.690Z,3.92
2023-05-19T04:29:20.646Z,4.32
2023-05-19T04:31:47.568Z,4.10
2023-05-19T04:34:14.280Z,4.28
2023-05-19T04:36:41.740Z,3.78
2023-05-19T04:39:11.573Z,3.67
2023-05-19T04:41:40.580Z,3.90
2023-05-19T04:44:09.066Z,4.10
2023-05-19T04:46:36.258Z,4.30
2023-05-19T04:49:03.168Z,3.97
2023-05-19T04:51:31.432Z,4.50
2023-05-19T04:53:58.460Z,4.07
2023-05-19T04:56:27.392Z,4.30
2023-05-19T04:58:54.282Z,4.28
2023-05-19T05:01:26.009Z,3.90
2023-05-19T05:06:23.062Z,4.55
2023-05-19T05:08:50.009Z,4.40
2023-05-19T05:11:17.727Z,4.78
2023-05-19T05:13:45.190Z,4.88
2023-05-19T05:16:12.687Z,4.95
2023-05-19T05:18:40.844Z,4.90
2023-05-19T05:21:09.545Z,4.97
2023-05-19T05:23:36.662Z,5.28
2023-05-19T05:26:09.906Z,5.15
2023-05-19T05:28:36.700Z,5.05
2023-05-19T05:31:03.482Z,5.13
2023-05-19T05:33:30.488Z,5.22
2023-05-19T05:35:57.428Z,5.28
2023-05-19T05:38:24.259Z,5.20
2023-05-19T05:40:51.019Z,5.82
2023-05-19T05:43:17.850Z,5.65
2023-05-19T05:45:44.736Z,5.53
2023-05-19T05:48:11.870Z,5.85
2023-05-19T05:50:39.043Z,5.70
2023-05-19T05:53:07.344Z,5.80
2023-05-19T05:55:34.672Z,5.85
2023-05-19T05:58:02.405Z,6.45
2023-05-19T06:00:30.010Z,5.85
2023-05-19T06:02:57.384Z,6.20
2023-05-19T06:05:25.211Z,5.80
2023-05-19T06:07:51.959Z,6.75
2023-05-19T06:10:18.784Z,6.47
2023-05-19T06:12:46.573Z,6.75
2023-05-19T06:15:13.520Z,7.32
2023-05-19T06:17:40.303Z,6.75
2023-05-19T06:20:08.859Z,6.88
2023-05-19T06:22:36.030Z,6.50
2023-05-19T06:25:03.639Z,7.65
2023-05-19T06:27:32.640Z,7.70
2023-05-19T06:30:01.525Z,7.88
2023-05-19T06:32:29.869Z,7.65
2023-05-19T06:34:56.964Z,7.20
2023-05-19T06:37:24.126Z,6.35
2023-05-19T06:39:53.764Z,7.28
2023-05-19T06:42:22.698Z,6.90
2023-05-19T06:44:50.455Z,7.57
2023-05-19T06:47:17.796Z,7.55
2023-05-19T06:49:44.970Z,7.00
2023-05-19T06:52:12.404Z,6.93
2023-05-19T06:54:39.394Z,7.88
2023-05-19T06:57:06.495Z,7.57
2023-05-19T06:59:33.394Z,7.05
2023-05-19T07:02:00.337Z,7.60
2023-05-19T07:04:27.457Z,7.30
2023-05-19T07:06:55.064Z,7.18
2023-05-19T07:09:21.976Z,7.90
2023-05-19T07:11:48.882Z,7.70
2023-05-19T07:14:15.804Z,8.90
2023-05-19T07:16:42.641Z,7.38
2023-05-19T07:19:09.485Z,7.88
2023-05-19T07:21:36.508Z,7.28
2023-05-19T07:24:03.301Z,8.20
2023-05-19T07:26:30.189Z,7.43
2023-05-19T07:29:00.231Z,7.68
2023-05-19T07:31:30.109Z,8.07
2023-05-19T07:33:57.486Z,7.65
2023-05-19T07:36:24.348Z,8.23
2023-05-19T07:38:51.173Z,8.40
2023-05-19T07:41:18.022Z,8.15
2023-05-19T07:43:44.821Z,8.48
2023-05-19T07:46:11.624Z,8.43
2023-05-19T07:48:38.457Z,9.10
2023-05-19T07:51:20.703Z,8.52
2023-05-19T07:53:47.520Z,9.40
2023-05-19T07:56:14.424Z,8.90
2023-05-19T07:58:41.210Z,9.00
2023-05-19T08:01:08.083Z,8.85
2023-05-19T08:03:35.197Z,9.80
2023-05-19T08:06:02.302Z,9.00
2023-05-19T08:08:29.068Z,9.45
2023-05-19T08:10:55.970Z,9.82
2023-05-19T08:13:22.720Z,8.25
2023-05-19T08:15:49.517Z,8.02
2023-05-19T08:18:16.528Z,7.50
2023-05-19T08:20:43.313Z,7.80
2023-05-19T08:23:10.116Z,7.53
2023-05-19T08:25:36.943Z,8.52
2023-05-19T08:28:03.836Z,7.53
2023-05-19T08:30:34.461Z,7.43
2023-05-19T08:33:02.389Z,7.47
2023-05-19T08:35:29.246Z,6.40
2023-05-19T08:37:56.404Z,6.60
2023-05-19T08:40:23.650Z,5.53
2023-05-19T08:42:50.684Z,6.55
2023-05-19T08:45:17.834Z,6.43
2023-05-19T08:47:47.382Z,5.80
2023-05-19T08:50:21.381Z,5.15
2023-05-19T08:52:53.814Z,5.65
2023-05-19T08:55:27.809Z,5.60
2023-05-19T08:57:55.229Z,5.45
2023-05-19T09:00:23.250Z,5.03
2023-05-19T09:03:00.221Z,5.43
2023-05-19T09:05:33.453Z,5.22
2023-05-19T09:08:02.916Z,4.72
2023-05-19T09:10:29.831Z,4.50
2023-05-19T09:12:56.740Z,4.20
2023-05-19T09:15:27.956Z,4.32
2023-05-19T09:18:15.205Z,5.28
2023-05-19T09:20:43.929Z,4.55
2023-05-19T09:23:18.540Z,4.72
2023-05-19T09:25:51.696Z,4.50
2023-05-19T09:28:30.567Z,4.15
2023-05-19T09:31:08.706Z,4.28
2023-05-19T09:33:46.095Z,4.35
2023-05-19T09:36:14.095Z,4.10
2023-05-19T09:38:41.520Z,4.28
2023-05-19T09:41:09.528Z,4.03
2023-05-19T09:43:36.580Z,4.10
2023-05-19T09:46:07.377Z,3.55
2023-05-19T09:48:36.616Z,3.35
2023-05-19T09:51:06.433Z,3.08
2023-05-19T09:53:34.840Z,3.28
2023-05-19T09:56:02.298Z,3.67
2023-05-19T09:58:36.676Z,3.22
2023-05-19T10:01:04.886Z,3.03
2023-05-19T10:03:34.987Z,2.92
2023-05-19T10:06:02.343Z,3.00
2023-05-19T10:08:30.927Z,3.20
2023-05-19T10:10:58.467Z,3.10
2023-05-19T10:13:26.000Z,3.40
2023-05-19T10:15:58.760Z,2.95
2023-05-19T10:18:27.919Z,3.10
2023-05-19T10:20:55.018Z,3.42
2023-05-19T10:23:22.470Z,3.00
2023-05-19T10:25:52.487Z,3.20
2023-05-19T10:28:25.415Z,2.92
2023-05-19T10:30:57.044Z,2.85
2023-05-19T10:33:38.708Z,3.10
2023-05-19T10:36:46.343Z,3.00
2023-05-19T10:39:35.719Z,3.05
2023-05-19T10:42:16.777Z,2.97
2023-05-19T10:45:18.032Z,3.13
2023-05-19T10:47:45.546Z,3.30
2023-05-19T10:50:12.638Z,3.40
2023-05-19T10:52:40.708Z,3.30
2023-05-19T10:55:10.206Z,2.45
2023-05-19T10:57:37.215Z,3.15
2023-05-19T11:00:25.646Z,2.97
2023-05-19T11:02:56.313Z,3.10
2023-05-19T11:05:29.906Z,2.65
2023-05-19T11:08:05.288Z,2.65
2023-05-19T11:10:32.583Z,2.90
2023-05-19T11:12:59.539Z,2.40
2023-05-19T11:15:27.821Z,2.67
2023-05-19T11:17:55.214Z,2.60
2023-05-19T11:20:27.237Z,2.78
2023-05-19T11:23:09.926Z,2.20
2023-05-19T11:25:45.178Z,2.10
2023-05-19T11:28:13.624Z,2.28
2023-05-19T11:30:42.893Z,2.85
2023-05-19T11:33:11.714Z,2.10
2023-05-19T11:35:38.943Z,2.17
2023-05-19T11:38:07.274Z,2.97
2023-05-19T11:40:34.099Z,2.30
2023-05-19T11:43:01.947Z,2.50
2023-05-19T11:45:34.893Z,2.90
2023-05-19T11:48:05.506Z,2.40
2023-05-19T11:50:33.378Z,2.05
2023-05-19T11:53:03.643Z,2.60
2023-05-19T11:55:30.866Z,2.25
2023-05-19T12:00:30.536Z,2.50
2023-05-19T12:02:58.076Z,1.90
2023-05-19T12:05:27.222Z,2.35
2023-05-19T12:07:54.472Z,2.35
2023-05-19T12:10:29.132Z,2.30
2023-05-19T12:12:57.323Z,2.40
2023-05-19T12:15:25.222Z,2.67
2023-05-19T12:18:00.347Z,2.30
2023-05-19T12:20:28.997Z,2.20
2023-05-19T12:22:56.527Z,2.30
2023-05-19T12:25:24.369Z,2.30
2023-05-19T12:27:56.181Z,2.05
2023-05-19T12:30:31.973Z,2.67
2023-05-19T12:32:59.674Z,2.35
2023-05-19T12:35:36.107Z,2.03
2023-05-19T12:38:12.267Z,2.50
2023-05-19T12:40:42.432Z,2.03
2023-05-19T12:43:19.230Z,2.17
2023-05-19T12:45:46.048Z,1.90
2023-05-19T12:48:13.961Z,1.98
2023-05-19T12:50:40.872Z,2.10
2023-05-19T12:53:14.968Z,2.38
2023-05-19T12:55:43.028Z,2.80
2023-05-19T12:58:11.548Z,1.98
2023-05-19T13:00:43.514Z,1.92
2023-05-19T13:03:20.910Z,1.98
2023-05-19T13:05:50.729Z,2.00
2023-05-19T13:08:20.321Z,2.20
2023-05-19T13:10:49.453Z,2.67
2023-05-19T13:13:17.253Z,2.15
2023-05-19T13:15:49.085Z,2.10
2023-05-19T13:20:45.483Z,1.70
2023-05-19T13:23:16.526Z,2.00
2023-05-19T13:25:44.264Z,1.67
2023-05-19T13:28:11.536Z,2.00
2023-05-19T13:30:40.323Z,2.10
2023-05-19T13:33:07.540Z,2.08
2023-05-19T13:35:37.917Z,1.90
2023-05-19T13:38:12.083Z,2.20
2023-05-19T13:40:39.913Z,2.13
2023-05-19T13:43:07.958Z,2.00
2023-05-19T13:45:34.973Z,1.75
2023-05-19T13:48:02.085Z,1.83
2023-05-19T13:50:29.066Z,1.92
2023-05-19T13:52:56.005Z,2.28
2023-05-19T13:55:23.688Z,2.25
2023-05-19T13:57:50.991Z,2.03
2023-05-19T14:00:19.393Z,2.20
2023-05-19T14:02:46.533Z,1.90
2023-05-19T14:05:13.558Z,2.50
2023-05-19T14:07:40.638Z,2.10
2023-05-19T14:10:08.049Z,1.90
2023-05-19T14:12:49.467Z,1.70
2023-05-19T14:15:22.949Z,1.75
2023-05-19T14:17:49.891Z,2.20
2023-05-19T14:20:16.790Z,2.20
2023-05-19T14:22:43.575Z,2.28
2023-05-19T14:25:10.731Z,1.95
2023-05-19T14:27:39.901Z,1.80
2023-05-19T14:30:07.949Z,1.85
2023-05-19T14:32:34.908Z,2.35
2023-05-19T14:35:01.850Z,1.85
2023-05-19T14:37:32.118Z,2.10
2023-05-19T14:39:59.301Z,1.95
2023-05-19T14:42:26.177Z,2.10
2023-05-19T14:44:53.034Z,1.95
2023-05-19T14:47:19.940Z,2.03
2023-05-19T14:49:46.837Z,2.00
2023-05-19T14:52:13.740Z,1.50
2023-05-19T14:54:40.807Z,1.42
2023-05-19T14:57:08.236Z,1.67
2023-05-19T14:59:38.410Z,1.90
2023-05-19T15:02:05.741Z,1.92
2023-05-19T15:04:32.668Z,1.90
2023-05-19T15:07:09.618Z,1.90
2023-05-19T15:09:37.682Z,1.80
2023-05-19T15:12:04.618Z,1.98
2023-05-19T15:14:31.648Z,1.92
2023-05-19T15:16:58.984Z,1.80
2023-05-19T15:19:26.453Z,1.77
2023-05-19T15:21:53.671Z,1.60
2023-05-19T15:24:20.512Z,1.75
2023-05-19T15:26:47.654Z,1.83
2023-05-19T15:29:14.865Z,2.08
2023-05-19T15:31:42.021Z,2.10
2023-05-19T15:34:09.008Z,2.00
2023-05-19T15:36:35.850Z,1.70
2023-05-19T15:39:03.887Z,2.00
2023-05-19T15:41:30.802Z,2.35
2023-05-19T15:44:00.305Z,2.15
2023-05-19T15:46:27.697Z,1.90
2023-05-19T15:48:55.298Z,1.90
2023-05-19T15:51:34.755Z,2.42
2023-05-19T15:54:01.641Z,1.90
2023-05-19T15:56:28.706Z,2.40
2023-05-19T15:58:55.573Z,1.92
2023-05-19T16:01:22.693Z,1.73
2023-05-19T16:03:49.637Z,1.65
2023-05-19T16:06:16.771Z,1.83
2023-05-19T16:08:43.645Z,1.80
2023-05-19T16:11:13.122Z,1.80
2023-05-19T16:13:40.501Z,1.80
2023-05-19T16:16:07.685Z,1.73
2023-05-19T16:18:34.605Z,1.70
2023-05-19T16:21:01.509Z,2.00
2023-05-19T16:23:28.383Z,1.48
2023-05-19T16:25:55.346Z,1.88
2023-05-19T16:28:24.440Z,1.50
2023-05-19T16:30:51.826Z,2.13
2023-05-19T16:33:19.973Z,1.80
2023-05-19T16:35:49.096Z,1.80
2023-05-19T16:38:16.005Z,2.00
2023-05-19T16:40:42.845Z,1.65
2023-05-19T16:43:09.763Z,1.60
2023-05-19T16:45:36.674Z,1.58
2023-05-19T16:48:03.800Z,1.20
2023-05-19T16:50:30.813Z,1.90
2023-05-19T16:52:57.654Z,1.35
2023-05-19T16:55:25.492Z,1.60
2023-05-19T16:57:52.413Z,1.52
2023-05-19T17:00:19.561Z,1.38
2023-05-19T17:02:46.474Z,1.70
2023-05-19T17:05:13.567Z,2.58
2023-05-19T17:07:40.414Z,1.77
2023-05-19T17:10:07.781Z,1.63
2023-05-19T17:12:34.593Z,1.50
2023-05-19T17:15:01.630Z,1.83
2023-05-19T17:17:29.130Z,1.50
2023-05-19T17:19:55.985Z,1.52
2023-05-19T17:22:23.008Z,1.60
2023-05-19T17:24:49.919Z,1.50
2023-05-19T17:27:16.730Z,1.77
2023-05-19T17:29:43.659Z,1.67
2023-05-19T17:32:10.660Z,1.50
2023-05-19T17:34:37.549Z,1.20
2023-05-19T17:37:04.579Z,1.45
2023-05-19T17:39:32.832Z,1.50
2023-05-19T17:41:59.727Z,1.30
2023-05-19T17:44:26.549Z,2.25
2023-05-19T17:46:53.510Z,1.40
2023-05-19T17:49:23.092Z,1.83
2023-05-19T17:51:50.342Z,1.95
2023-05-19T17:54:17.605Z,1.83
2023-05-19T17:56:45.744Z,1.70
2023-05-19T17:59:12.783Z,1.85
2023-05-19T18:01:40.980Z,1.38
2023-05-19T18:04:08.398Z,1.80
2023-05-19T18:06:38.478Z,1.80
2023-05-19T18:09:09.143Z,2.15
2023-05-19T18:11:36.418Z,1.75
2023-05-19T18:14:03.414Z,1.75
2023-05-19T18:16:30.314Z,1.92
2023-05-19T18:18:57.439Z,1.65
2023-05-19T18:21:25.110Z,1.65
2023-05-19T18:23:51.944Z,1.50
2023-05-19T18:26:18.880Z,1.45
2023-05-19T18:28:45.777Z,1.60
2023-05-19T18:31:19.074Z,1.45
2023-05-19T18:33:47.301Z,1.40
2023-05-19T18:36:16.527Z,2.00
2023-05-19T18:38:43.567Z,1.38
2023-05-19T18:41:10.505Z,1.60
2023-05-19T18:43:37.335Z,2.38
2023-05-19T18:46:04.289Z,2.10
2023-05-19T18:48:32.161Z,1.40
2023-05-19T18:50:59.511Z,1.50
2023-05-19T18:53:26.370Z,1.77
2023-05-19T18:55:53.233Z,1.98
2023-05-19T18:58:20.084Z,1.60
2023-05-19T19:00:47.201Z,1.90
2023-05-19T19:03:14.328Z,1.65
2023-05-19T19:05:41.344Z,1.77
2023-05-19T19:08:08.214Z,1.88
2023-05-19T19:10:39.102Z,1.77
2023-05-19T19:13:06.517Z,1.75
2023-05-19T19:15:33.363Z,1.48
2023-05-19T19:18:00.289Z,1.80
2023-05-19T19:20:27.287Z,1.50
2023-05-19T19:22:54.129Z,1.45
2023-05-19T19:25:23.278Z,1.75
2023-05-19T19:27:50.938Z,1.55
2023-05-19T19:30:17.896Z,1.75
2023-05-19T19:32:44.884Z,1.60
2023-05-19T19:35:11.868Z,1.67
2023-05-19T19:37:38.768Z,2.53
2023-05-19T19:40:06.368Z,1.45
2023-05-19T19:42:33.836Z,2.00
2023-05-19T19:45:00.889Z,1.58
2023-05-19T19:47:27.821Z,1.98
2023-05-19T19:49:56.010Z,1.77
2023-05-19T19:52:23.050Z,1.85
2023-05-19T19:54:49.878Z,1.95
2023-05-19T19:57:17.412Z,1.52
2023-05-19T19:59:44.494Z,2.03
2023-05-19T20:02:11.586Z,1.70
2023-05-19T20:04:38.580Z,1.50
2023-05-19T20:07:05.440Z,2.45
2023-05-19T20:09:32.275Z,1.80
2023-05-19T20:11:59.090Z,1.73
2023-05-19T20:14:26.162Z,1.80
2023-05-19T20:16:53.054Z,1.60
2023-05-19T20:19:19.965Z,1.75
2023-05-19T20:21:46.867Z,1.90
2023-05-19T20:24:13.696Z,1.60
2023-05-19T20:26:40.588Z,2.28
2023-05-19T20:29:07.483Z,1.98
2023-05-19T20:31:34.305Z,1.55
2023-05-19T20:34:01.834Z,1.77
2023-05-19T20:36:28.983Z,2.00
2023-05-19T20:38:55.788Z,1.75
2023-05-19T20:41:22.685Z,1.80
2023-05-19T20:43:49.584Z,2.20
2023-05-19T20:46:16.661Z,1.88
2023-05-19T20:48:43.593Z,1.85
2023-05-19T20:51:10.447Z,2.03
2023-05-19T20:53:37.342Z,1.98
2023-05-19T20:56:05.713Z,1.77
2023-05-19T20:58:32.883Z,1.60
2023-05-19T21:00:59.724Z,1.58
2023-05-19T21:03:27.286Z,1.60
2023-05-19T21:05:55.215Z,1.48
2023-05-19T21:08:22.667Z,1.35
2023-05-19T21:10:49.572Z,1.50
2023-05-19T21:13:17.749Z,1.70
2023-05-19T21:15:44.658Z,1.70
2023-05-19T21:18:12.657Z,1.77
2023-05-19T21:20:40.187Z,1.63
2023-05-19T21:23:07.101Z,1.42
2023-05-19T21:25:35.889Z,1.55
2023-05-19T21:28:03.383Z,1.73
2023-05-19T21:30:30.387Z,1.45
2023-05-19T21:32:57.513Z,1.90
2023-05-19T21:35:24.407Z,1.50
2023-05-19T21:37:51.510Z,1.95
2023-05-19T21:40:18.409Z,1.45
2023-05-19T21:42:45.216Z,1.52
2023-05-19T21:45:12.022Z,1.70
2023-05-19T21:47:38.981Z,1.75
2023-05-19T21:50:06.538Z,1.50
2023-05-19T21:52:33.373Z,1.20
2023-05-19T21:55:00.198Z,1.60
2023-05-19T21:57:27.059Z,1.63
2023-05-19T21:59:53.892Z,1.50
2023-05-19T22:02:21.142Z,1.60
2023-05-19T22:04:47.993Z,1.45
2023-05-19T22:07:14.824Z,1.80
2023-05-19T22:09:41.763Z,1.60
2023-05-19T22:12:08.525Z,1.63
2023-05-19T22:14:35.874Z,1.80
2023-05-19T22:17:02.838Z,1.60
2023-05-19T22:19:29.913Z,1.50
2023-05-19T22:22:09.813Z,1.88
2023-05-19T22:24:40.497Z,1.90
2023-05-19T22:27:07.927Z,1.75
2023-05-19T22:29:34.754Z,1.42
2023-05-19T22:32:01.556Z,1.63
2023-05-19T22:34:28.491Z,1.60
2023-05-19T22:36:55.354Z,1.50
2023-05-19T22:39:22.135Z,1.80
2023-05-19T22:41:48.847Z,1.45
2023-05-19T22:44:16.416Z,1.60
2023-05-19T22:46:44.305Z,1.70
2023-05-19T22:49:11.134Z,1.10
2023-05-19T22:51:39.326Z,1.20
2023-05-19T22:54:07.038Z,1.50
2023-05-19T22:56:34.182Z,1.25
2023-05-19T22:59:00.917Z,1.40
2023-05-19T23:01:27.762Z,1.60
2023-05-19T23:03:54.673Z,1.48
2023-05-19T23:06:22.226Z,1.63
2023-05-19T23:08:59.371Z,1.05
2023-05-19T23:11:26.409Z,1.60
2023-05-19T23:13:53.201Z,1.50
2023-05-19T23:16:20.018Z,1.45
2023-05-19T23:18:46.842Z,1.50
2023-05-19T23:21:13.633Z,1.27
2023-05-19T23:23:40.459Z,1.33
2023-05-19T23:26:07.215Z,1.38
2023-05-19T23:28:34.056Z,1.52
2023-05-19T23:31:00.878Z,1.27
2023-05-19T23:33:27.670Z,1.10
2023-05-19T23:35:54.600Z,1.33
2023-05-19T23:38:21.432Z,1.13
2023-05-19T23:40:48.261Z,1.55
2023-05-19T23:43:15.160Z,1.38
2023-05-19T23:45:41.923Z,1.38
2023-05-19T23:48:08.768Z,1.20
2023-05-19T23:50:35.736Z,1.50
2023-05-19T23:53:02.887Z,1.40
2023-05-19T23:55:29.767Z,1.10
2023-05-19T23:57:56.506Z,1.60
